KPSC/PSC METAR and TAF weather

Enter ICAO airport designator
Station Type Date Time Source
KPSC METAR 2020/11/28 19:53 UTC NOAA

KPSC 281953Z 32004KT 10SM CLR 10/02 A3033 RMK AO2 SLP274 T01000022


Station Type Date Time Source
KPSC Decoded METAR 2020/11/28 19:53 UTC NOAA

TRI-CITIES AIRPORT, WA, United States (KPSC) 46-16N 119-07W 121M
Nov 28, 2020 - 02:53 PM EST / 2020.11.28 1953 UTC
Wind: from the NW (320 degrees) at 5 MPH (4 KT):0
Visibility: 10 mile(s):0
Sky conditions: clear
Temperature: 50.0 F (10.0 C)
Dew Point: 36.0 F (2.2 C)
Relative Humidity: 58%
Pressure (altimeter): 30.33 in. Hg (1027 hPa)
ob: KPSC 281953Z 32004KT 10SM CLR 10/02 A3033 RMK AO2 SLP274 T01000022
cycle: 20

Station Type Date Time Source
KPSC TAF 2020/11/28 18:24 UTC NOAA

TAF KPSC 281721Z 2818/2918 VRB04KT P6SM SCT100
FM282000 VRB04KT P6SM SKC
FM291400 00000KT 5SM BR SCT004

Example: see airport list